sensor_id;sensor_type;location;lat;lon;timestamp;P1;durP1;ratioP1;P2;durP2;ratioP2
51451;SDS011;37521;52.020;-1.740;2023-05-10T00:01:31;3.35;;;1.65;;
51451;SDS011;37521;52.020;-1.740;2023-05-10T00:04:01;2.15;;;1.40;;
51451;SDS011;37521;52.020;-1.740;2023-05-10T00:06:29;2.25;;;1.85;;
51451;SDS011;37521;52.020;-1.740;2023-05-10T00:08:58;3.85;;;1.73;;
51451;SDS011;37521;52.020;-1.740;2023-05-10T00:11:26;3.15;;;1.25;;
51451;SDS011;37521;52.020;-1.740;2023-05-10T00:13:54;2.20;;;1.23;;
51451;SDS011;37521;52.020;-1.740;2023-05-10T00:16:22;4.65;;;1.50;;
51451;SDS011;37521;52.020;-1.740;2023-05-10T00:18:50;1.38;;;1.27;;
51451;SDS011;37521;52.020;-1.740;2023-05-10T00:21:20;4.47;;;1.30;;
51451;SDS011;37521;52.020;-1.740;2023-05-10T00:23:48;4.25;;;1.40;;
51451;SDS011;37521;52.020;-1.740;2023-05-10T00:26:16;1.10;;;0.88;;
51451;SDS011;37521;52.020;-1.740;2023-05-10T00:28:50;1.20;;;0.85;;
51451;SDS011;37521;52.020;-1.740;2023-05-10T00:31:18;4.00;;;1.23;;
51451;SDS011;37521;52.020;-1.740;2023-05-10T00:33:46;1.80;;;1.02;;
51451;SDS011;37521;52.020;-1.740;2023-05-10T00:36:14;3.67;;;1.65;;
51451;SDS011;37521;52.020;-1.740;2023-05-10T00:38:44;2.60;;;1.45;;
51451;SDS011;37521;52.020;-1.740;2023-05-10T00:41:12;1.42;;;1.00;;
51451;SDS011;37521;52.020;-1.740;2023-05-10T00:43:40;4.65;;;1.48;;
51451;SDS011;37521;52.020;-1.740;2023-05-10T00:46:09;4.47;;;0.80;;
51451;SDS011;37521;52.020;-1.740;2023-05-10T00:48:37;2.22;;;1.73;;
51451;SDS011;37521;52.020;-1.740;2023-05-10T00:51:06;2.17;;;1.13;;
51451;SDS011;37521;52.020;-1.740;2023-05-10T00:53:34;2.65;;;1.45;;
51451;SDS011;37521;52.020;-1.740;2023-05-10T00:56:04;3.67;;;1.30;;
51451;SDS011;37521;52.020;-1.740;2023-05-10T00:58:33;2.53;;;1.30;;
51451;SDS011;37521;52.020;-1.740;2023-05-10T01:01:01;2.72;;;1.50;;
51451;SDS011;37521;52.020;-1.740;2023-05-10T01:03:29;2.38;;;1.65;;
51451;SDS011;37521;52.020;-1.740;2023-05-10T01:05:58;4.15;;;1.42;;
51451;SDS011;37521;52.020;-1.740;2023-05-10T01:08:26;1.48;;;1.05;;
51451;SDS011;37521;52.020;-1.740;2023-05-10T01:10:55;4.32;;;1.30;;
51451;SDS011;37521;52.020;-1.740;2023-05-10T01:13:28;1.60;;;1.10;;
51451;SDS011;37521;52.020;-1.740;2023-05-10T01:16:01;2.28;;;1.45;;
51451;SDS011;37521;52.020;-1.740;2023-05-10T01:18:30;2.30;;;1.40;;
51451;SDS011;37521;52.020;-1.740;2023-05-10T01:21:01;4.57;;;1.40;;
51451;SDS011;37521;52.020;-1.740;2023-05-10T01:23:43;1.63;;;1.35;;
51451;SDS011;37521;52.020;-1.740;2023-05-10T01:26:22;2.63;;;1.58;;
51451;SDS011;37521;52.020;-1.740;2023-05-10T01:29:13;1.85;;;1.30;;
51451;SDS011;37521;52.020;-1.740;2023-05-10T01:31:58;3.22;;;1.13;;
51451;SDS011;37521;52.020;-1.740;2023-05-10T01:34:44;3.13;;;1.30;;
51451;SDS011;37521;52.020;-1.740;2023-05-10T01:37:21;2.97;;;1.00;;
51451;SDS011;37521;52.020;-1.740;2023-05-10T01:39:55;1.50;;;0.85;;
51451;SDS011;37521;52.020;-1.740;2023-05-10T01:42:31;5.57;;;1.42;;
51451;SDS011;37521;52.020;-1.740;2023-05-10T01:45:09;3.53;;;0.85;;
51451;SDS011;37521;52.020;-1.740;2023-05-10T01:47:48;5.97;;;1.00;;
51451;SDS011;37521;52.020;-1.740;2023-05-10T01:50:22;8.68;;;1.33;;
51451;SDS011;37521;52.020;-1.740;2023-05-10T01:52:55;1.88;;;0.95;;
51451;SDS011;37521;52.020;-1.740;2023-05-10T01:55:26;1.65;;;1.00;;
51451;SDS011;37521;52.020;-1.740;2023-05-10T01:57:58;2.15;;;0.93;;
51451;SDS011;37521;52.020;-1.740;2023-05-10T02:00:31;1.50;;;1.00;;
51451;SDS011;37521;52.020;-1.740;2023-05-10T02:03:03;2.30;;;0.93;;
51451;SDS011;37521;52.020;-1.740;2023-05-10T02:05:35;1.15;;;1.05;;
51451;SDS011;37521;52.020;-1.740;2023-05-10T02:08:06;2.92;;;0.88;;
51451;SDS011;37521;52.020;-1.740;2023-05-10T02:10:36;0.90;;;0.88;;
51451;SDS011;37521;52.020;-1.740;2023-05-10T02:13:07;0.82;;;0.82;;
51451;SDS011;37521;52.020;-1.740;2023-05-10T02:15:38;1.40;;;0.90;;
51451;SDS011;37521;52.020;-1.740;2023-05-10T02:18:12;2.72;;;1.02;;
51451;SDS011;37521;52.020;-1.740;2023-05-10T02:20:42;2.20;;;0.95;;
51451;SDS011;37521;52.020;-1.740;2023-05-10T02:23:12;1.45;;;0.90;;
51451;SDS011;37521;52.020;-1.740;2023-05-10T02:25:42;1.88;;;1.17;;
51451;SDS011;37521;52.020;-1.740;2023-05-10T02:28:12;1.23;;;0.52;;
51451;SDS011;37521;52.020;-1.740;2023-05-10T02:30:43;1.08;;;0.85;;
51451;SDS011;37521;52.020;-1.740;2023-05-10T02:33:13;1.27;;;1.00;;
51451;SDS011;37521;52.020;-1.740;2023-05-10T02:35:42;1.45;;;0.65;;
51451;SDS011;37521;52.020;-1.740;2023-05-10T02:38:10;0.98;;;0.90;;
51451;SDS011;37521;52.020;-1.740;2023-05-10T02:40:40;1.52;;;0.90;;
51451;SDS011;37521;52.020;-1.740;2023-05-10T02:43:12;1.02;;;0.65;;
51451;SDS011;37521;52.020;-1.740;2023-05-10T02:45:41;0.57;;;0.55;;
51451;SDS011;37521;52.020;-1.740;2023-05-10T02:48:12;0.85;;;0.82;;
51451;SDS011;37521;52.020;-1.740;2023-05-10T02:50:41;2.83;;;0.90;;
51451;SDS011;37521;52.020;-1.740;2023-05-10T02:53:14;0.43;;;0.43;;
51451;SDS011;37521;52.020;-1.740;2023-05-10T02:58:18;1.38;;;0.90;;
51451;SDS011;37521;52.020;-1.740;2023-05-10T03:00:47;4.22;;;0.90;;
51451;SDS011;37521;52.020;-1.740;2023-05-10T03:03:16;1.35;;;0.73;;
51451;SDS011;37521;52.020;-1.740;2023-05-10T03:05:44;1.38;;;0.55;;
51451;SDS011;37521;52.020;-1.740;2023-05-10T03:08:12;2.00;;;1.10;;
51451;SDS011;37521;52.020;-1.740;2023-05-10T03:10:43;1.08;;;0.75;;
51451;SDS011;37521;52.020;-1.740;2023-05-10T03:13:32;1.40;;;0.70;;
51451;SDS011;37521;52.020;-1.740;2023-05-10T03:16:08;1.23;;;0.60;;
51451;SDS011;37521;52.020;-1.740;2023-05-10T03:18:43;0.73;;;0.70;;
51451;SDS011;37521;52.020;-1.740;2023-05-10T03:21:16;3.42;;;0.95;;
51451;SDS011;37521;52.020;-1.740;2023-05-10T03:23:50;2.42;;;0.70;;
51451;SDS011;37521;52.020;-1.740;2023-05-10T03:26:23;1.70;;;0.95;;
51451;SDS011;37521;52.020;-1.740;2023-05-10T03:29:02;1.25;;;0.68;;
51451;SDS011;37521;52.020;-1.740;2023-05-10T03:31:32;1.15;;;0.80;;
51451;SDS011;37521;52.020;-1.740;2023-05-10T03:34:02;0.80;;;0.80;;
51451;SDS011;37521;52.020;-1.740;2023-05-10T03:36:30;0.93;;;0.63;;
51451;SDS011;37521;52.020;-1.740;2023-05-10T03:38:58;2.38;;;0.73;;
51451;SDS011;37521;52.020;-1.740;2023-05-10T03:41:27;1.02;;;0.73;;
51451;SDS011;37521;52.020;-1.740;2023-05-10T03:43:55;0.80;;;0.80;;
51451;SDS011;37521;52.020;-1.740;2023-05-10T03:46:23;2.13;;;0.90;;
51451;SDS011;37521;52.020;-1.740;2023-05-10T03:48:51;2.45;;;1.10;;
51451;SDS011;37521;52.020;-1.740;2023-05-10T03:51:21;2.72;;;0.80;;
51451;SDS011;37521;52.020;-1.740;2023-05-10T03:53:50;1.05;;;0.95;;
51451;SDS011;37521;52.020;-1.740;2023-05-10T03:56:19;2.45;;;0.80;;
51451;SDS011;37521;52.020;-1.740;2023-05-10T03:58:47;1.10;;;0.95;;
51451;SDS011;37521;52.020;-1.740;2023-05-10T04:01:15;1.33;;;0.52;;
51451;SDS011;37521;52.020;-1.740;2023-05-10T04:03:43;1.63;;;0.60;;
51451;SDS011;37521;52.020;-1.740;2023-05-10T04:06:11;0.88;;;0.68;;
51451;SDS011;37521;52.020;-1.740;2023-05-10T04:08:41;2.85;;;1.08;;
51451;SDS011;37521;52.020;-1.740;2023-05-10T04:11:10;1.50;;;0.90;;
51451;SDS011;37521;52.020;-1.740;2023-05-10T04:13:40;0.90;;;0.88;;
51451;SDS011;37521;52.020;-1.740;2023-05-10T04:16:09;3.20;;;0.80;;
51451;SDS011;37521;52.020;-1.740;2023-05-10T04:18:37;0.80;;;0.80;;
51451;SDS011;37521;52.020;-1.740;2023-05-10T04:21:10;0.43;;;0.43;;
51451;SDS011;37521;52.020;-1.740;2023-05-10T04:23:40;2.58;;;0.77;;
51451;SDS011;37521;52.020;-1.740;2023-05-10T04:26:09;1.85;;;0.57;;
51451;SDS011;37521;52.020;-1.740;2023-05-10T04:28:37;3.53;;;1.20;;
51451;SDS011;37521;52.020;-1.740;2023-05-10T04:31:06;1.25;;;0.60;;
51451;SDS011;37521;52.020;-1.740;2023-05-10T04:33:36;1.45;;;0.70;;
51451;SDS011;37521;52.020;-1.740;2023-05-10T04:36:04;2.08;;;0.82;;
51451;SDS011;37521;52.020;-1.740;2023-05-10T04:38:33;0.93;;;0.60;;
51451;SDS011;37521;52.020;-1.740;2023-05-10T04:41:06;1.23;;;0.50;;
51451;SDS011;37521;52.020;-1.740;2023-05-10T04:43:35;1.45;;;1.00;;
51451;SDS011;37521;52.020;-1.740;2023-05-10T04:46:04;1.48;;;0.70;;
51451;SDS011;37521;52.020;-1.740;2023-05-10T04:48:33;1.00;;;0.60;;
51451;SDS011;37521;52.020;-1.740;2023-05-10T04:51:01;0.77;;;0.52;;
51451;SDS011;37521;52.020;-1.740;2023-05-10T04:53:31;3.70;;;1.17;;
51451;SDS011;37521;52.020;-1.740;2023-05-10T04:55:59;1.55;;;0.55;;
51451;SDS011;37521;52.020;-1.740;2023-05-10T04:58:29;1.73;;;0.98;;
51451;SDS011;37521;52.020;-1.740;2023-05-10T05:00:57;1.13;;;1.10;;
51451;SDS011;37521;52.020;-1.740;2023-05-10T05:03:25;1.10;;;0.95;;
51451;SDS011;37521;52.020;-1.740;2023-05-10T05:05:53;2.88;;;1.02;;
51451;SDS011;37521;52.020;-1.740;2023-05-10T05:08:21;1.90;;;1.00;;
51451;SDS011;37521;52.020;-1.740;2023-05-10T05:10:50;2.80;;;1.00;;
51451;SDS011;37521;52.020;-1.740;2023-05-10T05:13:18;1.38;;;1.02;;
51451;SDS011;37521;52.020;-1.740;2023-05-10T05:15:48;0.70;;;0.70;;
51451;SDS011;37521;52.020;-1.740;2023-05-10T05:18:16;2.30;;;0.70;;
51451;SDS011;37521;52.020;-1.740;2023-05-10T05:20:44;3.58;;;1.50;;
51451;SDS011;37521;52.020;-1.740;2023-05-10T05:23:12;1.25;;;0.90;;
51451;SDS011;37521;52.020;-1.740;2023-05-10T05:25:40;0.90;;;0.77;;
51451;SDS011;37521;52.020;-1.740;2023-05-10T05:28:08;1.42;;;0.88;;
51451;SDS011;37521;52.020;-1.740;2023-05-10T05:30:36;1.33;;;0.90;;
51451;SDS011;37521;52.020;-1.740;2023-05-10T05:33:06;1.90;;;0.80;;
51451;SDS011;37521;52.020;-1.740;2023-05-10T05:35:34;2.67;;;0.90;;
51451;SDS011;37521;52.020;-1.740;2023-05-10T05:38:02;1.40;;;0.82;;
51451;SDS011;37521;52.020;-1.740;2023-05-10T05:40:30;2.10;;;0.55;;
51451;SDS011;37521;52.020;-1.740;2023-05-10T05:42:58;1.38;;;0.98;;
51451;SDS011;37521;52.020;-1.740;2023-05-10T05:45:26;2.83;;;0.98;;
51451;SDS011;37521;52.020;-1.740;2023-05-10T05:47:55;1.73;;;0.65;;
51451;SDS011;37521;52.020;-1.740;2023-05-10T05:50:24;1.40;;;0.85;;
51451;SDS011;37521;52.020;-1.740;2023-05-10T05:52:52;2.05;;;0.88;;
51451;SDS011;37521;52.020;-1.740;2023-05-10T05:55:20;3.58;;;0.75;;
51451;SDS011;37521;52.020;-1.740;2023-05-10T05:57:49;1.92;;;1.23;;
51451;SDS011;37521;52.020;-1.740;2023-05-10T06:00:17;1.63;;;1.23;;
51451;SDS011;37521;52.020;-1.740;2023-05-10T06:02:45;3.15;;;0.98;;
51451;SDS011;37521;52.020;-1.740;2023-05-10T06:05:13;2.83;;;0.77;;
51451;SDS011;37521;52.020;-1.740;2023-05-10T06:07:43;2.38;;;0.90;;
51451;SDS011;37521;52.020;-1.740;2023-05-10T06:10:11;3.40;;;1.02;;
51451;SDS011;37521;52.020;-1.740;2023-05-10T06:12:39;2.13;;;0.88;;
51451;SDS011;37521;52.020;-1.740;2023-05-10T06:15:08;4.65;;;1.10;;
51451;SDS011;37521;52.020;-1.740;2023-05-10T06:17:37;1.60;;;0.77;;
51451;SDS011;37521;52.020;-1.740;2023-05-10T06:20:06;0.80;;;0.50;;
51451;SDS011;37521;52.020;-1.740;2023-05-10T06:22:35;0.68;;;0.68;;
51451;SDS011;37521;52.020;-1.740;2023-05-10T06:25:05;1.75;;;1.55;;
51451;SDS011;37521;52.020;-1.740;2023-05-10T06:27:33;2.60;;;1.27;;
51451;SDS011;37521;52.020;-1.740;2023-05-10T06:30:01;1.52;;;1.00;;
51451;SDS011;37521;52.020;-1.740;2023-05-10T06:32:38;1.88;;;0.80;;
51451;SDS011;37521;52.020;-1.740;2023-05-10T06:35:07;2.78;;;0.80;;
51451;SDS011;37521;52.020;-1.740;2023-05-10T06:37:35;4.05;;;0.82;;
51451;SDS011;37521;52.020;-1.740;2023-05-10T06:40:05;1.40;;;0.80;;
51451;SDS011;37521;52.020;-1.740;2023-05-10T06:42:35;2.03;;;1.05;;
51451;SDS011;37521;52.020;-1.740;2023-05-10T06:45:04;0.95;;;0.77;;
51451;SDS011;37521;52.020;-1.740;2023-05-10T06:47:33;3.60;;;0.80;;
51451;SDS011;37521;52.020;-1.740;2023-05-10T06:50:04;5.55;;;1.02;;
51451;SDS011;37521;52.020;-1.740;2023-05-10T06:52:33;5.78;;;1.00;;
51451;SDS011;37521;52.020;-1.740;2023-05-10T06:55:01;2.22;;;0.63;;
51451;SDS011;37521;52.020;-1.740;2023-05-10T06:57:32;2.38;;;0.93;;
51451;SDS011;37521;52.020;-1.740;2023-05-10T07:00:00;1.60;;;0.77;;
51451;SDS011;37521;52.020;-1.740;2023-05-10T07:02:30;3.50;;;1.00;;
51451;SDS011;37521;52.020;-1.740;2023-05-10T07:04:59;1.92;;;0.80;;
51451;SDS011;37521;52.020;-1.740;2023-05-10T07:07:29;2.53;;;0.90;;
51451;SDS011;37521;52.020;-1.740;2023-05-10T07:09:57;3.42;;;0.82;;
51451;SDS011;37521;52.020;-1.740;2023-05-10T07:12:26;2.15;;;0.90;;
51451;SDS011;37521;52.020;-1.740;2023-05-10T07:14:55;1.90;;;0.77;;
51451;SDS011;37521;52.020;-1.740;2023-05-10T07:17:23;3.53;;;0.70;;
51451;SDS011;37521;52.020;-1.740;2023-05-10T07:19:52;1.92;;;0.93;;
51451;SDS011;37521;52.020;-1.740;2023-05-10T07:22:20;4.82;;;1.00;;
51451;SDS011;37521;52.020;-1.740;2023-05-10T07:24:48;2.05;;;0.85;;
51451;SDS011;37521;52.020;-1.740;2023-05-10T07:27:16;2.08;;;0.93;;
51451;SDS011;37521;52.020;-1.740;2023-05-10T07:29:44;1.15;;;0.68;;
51451;SDS011;37521;52.020;-1.740;2023-05-10T07:32:14;1.83;;;1.00;;
51451;SDS011;37521;52.020;-1.740;2023-05-10T07:34:42;0.45;;;0.45;;
51451;SDS011;37521;52.020;-1.740;2023-05-10T07:37:10;4.00;;;1.00;;
51451;SDS011;37521;52.020;-1.740;2023-05-10T07:39:39;4.65;;;1.58;;
51451;SDS011;37521;52.020;-1.740;2023-05-10T07:42:07;3.10;;;0.93;;
51451;SDS011;37521;52.020;-1.740;2023-05-10T07:44:35;4.53;;;1.27;;
51451;SDS011;37521;52.020;-1.740;2023-05-10T07:47:03;3.03;;;0.93;;
51451;SDS011;37521;52.020;-1.740;2023-05-10T07:49:32;2.08;;;0.90;;
51451;SDS011;37521;52.020;-1.740;2023-05-10T07:52:02;4.13;;;1.13;;
51451;SDS011;37521;52.020;-1.740;2023-05-10T07:54:31;3.03;;;0.93;;
51451;SDS011;37521;52.020;-1.740;2023-05-10T07:57:00;3.20;;;0.95;;
51451;SDS011;37521;52.020;-1.740;2023-05-10T07:59:28;2.88;;;1.10;;
51451;SDS011;37521;52.020;-1.740;2023-05-10T08:01:56;2.40;;;1.23;;
51451;SDS011;37521;52.020;-1.740;2023-05-10T08:04:25;2.00;;;1.23;;
51451;SDS011;37521;52.020;-1.740;2023-05-10T08:06:54;3.20;;;0.95;;
51451;SDS011;37521;52.020;-1.740;2023-05-10T08:09:22;4.15;;;1.52;;
51451;SDS011;37521;52.020;-1.740;2023-05-10T08:11:51;3.47;;;1.17;;
51451;SDS011;37521;52.020;-1.740;2023-05-10T08:14:19;2.92;;;1.27;;
51451;SDS011;37521;52.020;-1.740;2023-05-10T08:16:47;1.13;;;1.00;;
51451;SDS011;37521;52.020;-1.740;2023-05-10T08:19:15;1.63;;;1.20;;
51451;SDS011;37521;52.020;-1.740;2023-05-10T08:21:45;0.93;;;0.80;;
51451;SDS011;37521;52.020;-1.740;2023-05-10T08:24:14;1.25;;;1.08;;
51451;SDS011;37521;52.020;-1.740;2023-05-10T08:26:43;1.60;;;0.73;;
51451;SDS011;37521;52.020;-1.740;2023-05-10T08:29:11;1.70;;;0.73;;
51451;SDS011;37521;52.020;-1.740;2023-05-10T08:31:39;0.77;;;0.68;;
51451;SDS011;37521;52.020;-1.740;2023-05-10T08:34:07;3.22;;;0.77;;
51451;SDS011;37521;52.020;-1.740;2023-05-10T08:36:35;5.25;;;1.08;;
51451;SDS011;37521;52.020;-1.740;2023-05-10T08:39:03;3.88;;;1.77;;
51451;SDS011;37521;52.020;-1.740;2023-05-10T08:41:46;0.88;;;0.88;;
51451;SDS011;37521;52.020;-1.740;2023-05-10T08:44:15;5.45;;;1.33;;
51451;SDS011;37521;52.020;-1.740;2023-05-10T08:46:45;3.20;;;1.02;;
51451;SDS011;37521;52.020;-1.740;2023-05-10T08:49:16;2.15;;;1.00;;
51451;SDS011;37521;52.020;-1.740;2023-05-10T08:51:47;2.55;;;1.00;;
51451;SDS011;37521;52.020;-1.740;2023-05-10T08:54:19;5.32;;;1.10;;
51451;SDS011;37521;52.020;-1.740;2023-05-10T08:56:50;2.55;;;1.00;;
51451;SDS011;37521;52.020;-1.740;2023-05-10T08:59:18;2.22;;;1.30;;
51451;SDS011;37521;52.020;-1.740;2023-05-10T09:01:46;3.20;;;1.00;;
51451;SDS011;37521;52.020;-1.740;2023-05-10T09:04:15;3.75;;;0.90;;
51451;SDS011;37521;52.020;-1.740;2023-05-10T09:06:44;0.95;;;0.93;;
51451;SDS011;37521;52.020;-1.740;2023-05-10T09:09:12;0.93;;;0.63;;
51451;SDS011;37521;52.020;-1.740;2023-05-10T09:11:41;0.90;;;0.80;;
51451;SDS011;37521;52.020;-1.740;2023-05-10T09:14:10;1.15;;;0.60;;
51451;SDS011;37521;52.020;-1.740;2023-05-10T09:16:40;2.63;;;0.80;;
51451;SDS011;37521;52.020;-1.740;2023-05-10T09:19:08;0.50;;;0.50;;
51451;SDS011;37521;52.020;-1.740;2023-05-10T09:21:37;0.98;;;0.90;;
51451;SDS011;37521;52.020;-1.740;2023-05-10T09:24:05;0.93;;;0.50;;
51451;SDS011;37521;52.020;-1.740;2023-05-10T09:26:34;0.85;;;0.80;;
51451;SDS011;37521;52.020;-1.740;2023-05-10T09:29:03;0.95;;;0.90;;
51451;SDS011;37521;52.020;-1.740;2023-05-10T09:31:44;0.73;;;0.73;;
51451;SDS011;37521;52.020;-1.740;2023-05-10T09:34:15;1.23;;;1.02;;
51451;SDS011;37521;52.020;-1.740;2023-05-10T09:36:51;1.85;;;0.77;;
51451;SDS011;37521;52.020;-1.740;2023-05-10T09:39:29;3.22;;;0.80;;
51451;SDS011;37521;52.020;-1.740;2023-05-10T09:41:59;0.90;;;0.80;;
51451;SDS011;37521;52.020;-1.740;2023-05-10T09:44:30;2.88;;;0.98;;
51451;SDS011;37521;52.020;-1.740;2023-05-10T09:47:00;2.08;;;0.65;;
51451;SDS011;37521;52.020;-1.740;2023-05-10T09:49:29;2.53;;;1.05;;
51451;SDS011;37521;52.020;-1.740;2023-05-10T09:52:00;0.80;;;0.80;;
51451;SDS011;37521;52.020;-1.740;2023-05-10T09:54:30;0.85;;;0.85;;
51451;SDS011;37521;52.020;-1.740;2023-05-10T09:56:58;1.63;;;0.95;;
51451;SDS011;37521;52.020;-1.740;2023-05-10T09:59:27;1.95;;;1.35;;
51451;SDS011;37521;52.020;-1.740;2023-05-10T10:01:57;0.95;;;0.82;;
51451;SDS011;37521;52.020;-1.740;2023-05-10T10:04:28;2.15;;;1.25;;
51451;SDS011;37521;52.020;-1.740;2023-05-10T10:06:58;3.42;;;1.10;;
51451;SDS011;37521;52.020;-1.740;2023-05-10T10:09:28;1.27;;;0.77;;
51451;SDS011;37521;52.020;-1.740;2023-05-10T10:11:56;5.47;;;1.13;;
51451;SDS011;37521;52.020;-1.740;2023-05-10T10:14:25;1.35;;;0.95;;
51451;SDS011;37521;52.020;-1.740;2023-05-10T10:16:53;0.98;;;0.60;;
51451;SDS011;37521;52.020;-1.740;2023-05-10T10:19:35;3.95;;;0.98;;
51451;SDS011;37521;52.020;-1.740;2023-05-10T10:22:04;3.22;;;1.20;;
51451;SDS011;37521;52.020;-1.740;2023-05-10T10:24:32;2.28;;;1.25;;
51451;SDS011;37521;52.020;-1.740;2023-05-10T10:27:04;2.35;;;1.10;;
51451;SDS011;37521;52.020;-1.740;2023-05-10T10:29:42;1.85;;;1.10;;
51451;SDS011;37521;52.020;-1.740;2023-05-10T10:32:19;2.22;;;0.80;;
51451;SDS011;37521;52.020;-1.740;2023-05-10T10:34:59;1.65;;;0.77;;
51451;SDS011;37521;52.020;-1.740;2023-05-10T10:37:40;2.05;;;0.95;;
51451;SDS011;37521;52.020;-1.740;2023-05-10T10:48:37;1.10;;;0.57;;
51451;SDS011;37521;52.020;-1.740;2023-05-10T10:51:07;0.82;;;0.63;;
51451;SDS011;37521;52.020;-1.740;2023-05-10T10:53:39;2.47;;;0.80;;
51451;SDS011;37521;52.020;-1.740;2023-05-10T10:56:08;1.23;;;0.85;;
51451;SDS011;37521;52.020;-1.740;2023-05-10T10:58:38;1.85;;;0.82;;
51451;SDS011;37521;52.020;-1.740;2023-05-10T11:01:10;2.30;;;0.50;;
51451;SDS011;37521;52.020;-1.740;2023-05-10T11:03:41;3.33;;;0.63;;
51451;SDS011;37521;52.020;-1.740;2023-05-10T11:06:44;0.65;;;0.40;;
51451;SDS011;37521;52.020;-1.740;2023-05-10T11:09:12;1.45;;;0.60;;
51451;SDS011;37521;52.020;-1.740;2023-05-10T11:11:48;1.85;;;1.02;;
51451;SDS011;37521;52.020;-1.740;2023-05-10T11:14:19;1.95;;;0.95;;
51451;SDS011;37521;52.020;-1.740;2023-05-10T11:16:49;1.00;;;0.90;;
51451;SDS011;37521;52.020;-1.740;2023-05-10T11:19:17;3.45;;;0.93;;
51451;SDS011;37521;52.020;-1.740;2023-05-10T11:21:48;0.40;;;0.40;;
51451;SDS011;37521;52.020;-1.740;2023-05-10T11:24:19;1.67;;;0.60;;
51451;SDS011;37521;52.020;-1.740;2023-05-10T11:26:49;1.20;;;0.45;;
51451;SDS011;37521;52.020;-1.740;2023-05-10T11:29:19;1.15;;;0.70;;
51451;SDS011;37521;52.020;-1.740;2023-05-10T11:31:48;2.60;;;0.77;;
51451;SDS011;37521;52.020;-1.740;2023-05-10T11:34:23;3.95;;;1.10;;
51451;SDS011;37521;52.020;-1.740;2023-05-10T11:36:54;3.10;;;1.10;;
51451;SDS011;37521;52.020;-1.740;2023-05-10T11:39:25;0.80;;;0.70;;
51451;SDS011;37521;52.020;-1.740;2023-05-10T11:41:54;1.67;;;0.32;;
51451;SDS011;37521;52.020;-1.740;2023-05-10T11:44:22;0.40;;;0.40;;
51451;SDS011;37521;52.020;-1.740;2023-05-10T11:46:51;0.40;;;0.40;;
51451;SDS011;37521;52.020;-1.740;2023-05-10T11:49:19;0.47;;;0.30;;
51451;SDS011;37521;52.020;-1.740;2023-05-10T11:51:50;0.40;;;0.40;;
51451;SDS011;37521;52.020;-1.740;2023-05-10T11:54:19;0.55;;;0.35;;
51451;SDS011;37521;52.020;-1.740;2023-05-10T11:56:48;0.38;;;0.30;;
51451;SDS011;37521;52.020;-1.740;2023-05-10T11:59:17;1.55;;;0.60;;
51451;SDS011;37521;52.020;-1.740;2023-05-10T12:01:46;2.92;;;0.60;;
51451;SDS011;37521;52.020;-1.740;2023-05-10T12:04:14;1.38;;;0.40;;
51451;SDS011;37521;52.020;-1.740;2023-05-10T12:06:43;0.85;;;0.38;;
51451;SDS011;37521;52.020;-1.740;2023-05-10T12:09:12;1.38;;;0.50;;
51451;SDS011;37521;52.020;-1.740;2023-05-10T12:11:46;1.40;;;0.30;;
51451;SDS011;37521;52.020;-1.740;2023-05-10T12:14:14;1.20;;;0.60;;
51451;SDS011;37521;52.020;-1.740;2023-05-10T12:16:43;0.80;;;0.73;;
51451;SDS011;37521;52.020;-1.740;2023-05-10T12:19:11;1.10;;;0.30;;
51451;SDS011;37521;52.020;-1.740;2023-05-10T12:21:39;0.55;;;0.30;;
51451;SDS011;37521;52.020;-1.740;2023-05-10T12:24:07;0.57;;;0.57;;
51451;SDS011;37521;52.020;-1.740;2023-05-10T12:26:37;2.45;;;0.57;;
51451;SDS011;37521;52.020;-1.740;2023-05-10T12:29:13;1.05;;;0.60;;
51451;SDS011;37521;52.020;-1.740;2023-05-10T12:31:49;2.65;;;0.30;;
51451;SDS011;37521;52.020;-1.740;2023-05-10T12:34:23;3.25;;;1.02;;
51451;SDS011;37521;52.020;-1.740;2023-05-10T12:36:52;1.25;;;0.65;;
51451;SDS011;37521;52.020;-1.740;2023-05-10T12:39:20;2.88;;;0.77;;
51451;SDS011;37521;52.020;-1.740;2023-05-10T12:41:49;0.60;;;0.60;;
51451;SDS011;37521;52.020;-1.740;2023-05-10T12:44:18;0.60;;;0.50;;
51451;SDS011;37521;52.020;-1.740;2023-05-10T12:46:46;0.55;;;0.47;;
51451;SDS011;37521;52.020;-1.740;2023-05-10T12:49:14;1.67;;;0.43;;
51451;SDS011;37521;52.020;-1.740;2023-05-10T12:51:43;2.05;;;0.52;;
51451;SDS011;37521;52.020;-1.740;2023-05-10T12:54:11;0.45;;;0.45;;
51451;SDS011;37521;52.020;-1.740;2023-05-10T12:56:39;1.20;;;0.80;;
51451;SDS011;37521;52.020;-1.740;2023-05-10T12:59:09;3.20;;;0.85;;
51451;SDS011;37521;52.020;-1.740;2023-05-10T13:01:38;3.38;;;1.00;;
51451;SDS011;37521;52.020;-1.740;2023-05-10T13:04:06;1.15;;;0.88;;
51451;SDS011;37521;52.020;-1.740;2023-05-10T13:06:35;1.88;;;0.77;;
51451;SDS011;37521;52.020;-1.740;2023-05-10T13:09:03;2.80;;;1.02;;
51451;SDS011;37521;52.020;-1.740;2023-05-10T13:11:31;0.95;;;0.68;;
51451;SDS011;37521;52.020;-1.740;2023-05-10T13:13:59;5.85;;;1.17;;
51451;SDS011;37521;52.020;-1.740;2023-05-10T13:16:29;2.00;;;1.00;;
51451;SDS011;37521;52.020;-1.740;2023-05-10T13:18:59;2.65;;;1.10;;
51451;SDS011;37521;52.020;-1.740;2023-05-10T13:21:27;0.77;;;0.77;;
51451;SDS011;37521;52.020;-1.740;2023-05-10T13:23:55;0.93;;;0.85;;
51451;SDS011;37521;52.020;-1.740;2023-05-10T13:26:24;1.92;;;1.10;;
51451;SDS011;37521;52.020;-1.740;2023-05-10T13:28:52;1.65;;;0.63;;
51451;SDS011;37521;52.020;-1.740;2023-05-10T13:31:22;3.72;;;0.85;;
51451;SDS011;37521;52.020;-1.740;2023-05-10T13:33:50;3.53;;;1.02;;
51451;SDS011;37521;52.020;-1.740;2023-05-10T13:36:19;0.68;;;0.65;;
51451;SDS011;37521;52.020;-1.740;2023-05-10T13:38:49;0.50;;;0.50;;
51451;SDS011;37521;52.020;-1.740;2023-05-10T13:41:17;0.90;;;0.50;;
51451;SDS011;37521;52.020;-1.740;2023-05-10T13:43:45;1.85;;;1.08;;
51451;SDS011;37521;52.020;-1.740;2023-05-10T13:46:15;1.58;;;0.70;;
51451;SDS011;37521;52.020;-1.740;2023-05-10T13:48:43;1.70;;;0.82;;
51451;SDS011;37521;52.020;-1.740;2023-05-10T13:51:11;0.52;;;0.52;;
51451;SDS011;37521;52.020;-1.740;2023-05-10T13:53:41;2.22;;;0.95;;
51451;SDS011;37521;52.020;-1.740;2023-05-10T13:56:09;3.72;;;1.00;;
51451;SDS011;37521;52.020;-1.740;2023-05-10T13:58:37;0.90;;;0.90;;
51451;SDS011;37521;52.020;-1.740;2023-05-10T14:01:05;1.25;;;0.60;;
51451;SDS011;37521;52.020;-1.740;2023-05-10T14:03:33;1.75;;;1.05;;
51451;SDS011;37521;52.020;-1.740;2023-05-10T14:06:01;2.95;;;1.13;;
51451;SDS011;37521;52.020;-1.740;2023-05-10T14:08:29;2.95;;;0.90;;
51451;SDS011;37521;52.020;-1.740;2023-05-10T14:10:59;2.05;;;0.70;;
51451;SDS011;37521;52.020;-1.740;2023-05-10T14:13:27;3.28;;;0.95;;
51451;SDS011;37521;52.020;-1.740;2023-05-10T14:15:55;0.30;;;0.30;;
51451;SDS011;37521;52.020;-1.740;2023-05-10T14:18:23;1.60;;;0.40;;
51451;SDS011;37521;52.020;-1.740;2023-05-10T14:20:52;1.08;;;0.20;;
51451;SDS011;37521;52.020;-1.740;2023-05-10T14:23:21;2.40;;;0.30;;
51451;SDS011;37521;52.020;-1.740;2023-05-10T14:25:51;0.52;;;0.50;;
51451;SDS011;37521;52.020;-1.740;2023-05-10T14:28:21;0.90;;;0.30;;
51451;SDS011;37521;52.020;-1.740;2023-05-10T14:33:25;2.92;;;0.17;;
51451;SDS011;37521;52.020;-1.740;2023-05-10T14:35:54;0.20;;;0.20;;
51451;SDS011;37521;52.020;-1.740;2023-05-10T14:38:25;0.20;;;0.20;;
51451;SDS011;37521;52.020;-1.740;2023-05-10T14:40:54;0.28;;;0.28;;
51451;SDS011;37521;52.020;-1.740;2023-05-10T14:43:23;0.20;;;0.20;;
51451;SDS011;37521;52.020;-1.740;2023-05-10T14:45:53;0.10;;;0.10;;
51451;SDS011;37521;52.020;-1.740;2023-05-10T14:48:21;0.17;;;0.17;;
51451;SDS011;37521;52.020;-1.740;2023-05-10T14:50:50;0.20;;;0.20;;
51451;SDS011;37521;52.020;-1.740;2023-05-10T14:53:19;0.00;;;0.00;;
51451;SDS011;37521;52.020;-1.740;2023-05-10T14:55:47;2.92;;;0.30;;
51451;SDS011;37521;52.020;-1.740;2023-05-10T14:58:15;0.30;;;0.20;;
51451;SDS011;37521;52.020;-1.740;2023-05-10T15:00:45;0.03;;;0.03;;
51451;SDS011;37521;52.020;-1.740;2023-05-10T15:03:14;0.85;;;0.10;;